sensor_id;sensor_type;location;lat;lon;timestamp;P1;durP1;ratioP1;P2;durP2;ratioP2
83738;SDS011;73720;54.448;-0.944;2023-11-19T00:02:30;2.6;;;0.9;;
83738;SDS011;73720;54.448;-0.944;2023-11-19T00:05:30;2.7;;;1.2;;
83738;SDS011;73720;54.448;-0.944;2023-11-19T00:08:30;3;;;1.1;;
83738;SDS011;73720;54.448;-0.944;2023-11-19T00:11:30;3.1;;;0.9;;
83738;SDS011;73720;54.448;-0.944;2023-11-19T00:14:30;2.5;;;1.1;;
83738;SDS011;73720;54.448;-0.944;2023-11-19T00:17:30;3.3;;;1.1;;
83738;SDS011;73720;54.448;-0.944;2023-11-19T00:20:30;3.3;;;1;;
83738;SDS011;73720;54.448;-0.944;2023-11-19T00:23:30;2.5;;;1;;
83738;SDS011;73720;54.448;-0.944;2023-11-19T00:26:30;3.6;;;1;;
83738;SDS011;73720;54.448;-0.944;2023-11-19T00:29:30;2.5;;;0.9;;
83738;SDS011;73720;54.448;-0.944;2023-11-19T00:32:31;3.3;;;1.1;;
83738;SDS011;73720;54.448;-0.944;2023-11-19T00:35:30;3.5;;;1.1;;
83738;SDS011;73720;54.448;-0.944;2023-11-19T00:38:30;3.5;;;1.2;;
83738;SDS011;73720;54.448;-0.944;2023-11-19T00:41:30;2.9;;;1.1;;
83738;SDS011;73720;54.448;-0.944;2023-11-19T00:44:30;3;;;1.1;;
83738;SDS011;73720;54.448;-0.944;2023-11-19T00:47:30;3.1;;;0.9;;
83738;SDS011;73720;54.448;-0.944;2023-11-19T00:50:30;3;;;1.3;;
83738;SDS011;73720;54.448;-0.944;2023-11-19T00:53:30;2.8;;;0.9;;
83738;SDS011;73720;54.448;-0.944;2023-11-19T00:56:30;2.7;;;1;;
83738;SDS011;73720;54.448;-0.944;2023-11-19T00:59:30;2.9;;;1;;
83738;SDS011;73720;54.448;-0.944;2023-11-19T01:02:30;2.5;;;1.3;;
83738;SDS011;73720;54.448;-0.944;2023-11-19T01:05:30;3;;;0.9;;
83738;SDS011;73720;54.448;-0.944;2023-11-19T01:08:30;2.7;;;0.9;;
83738;SDS011;73720;54.448;-0.944;2023-11-19T01:11:30;2.6;;;0.9;;
83738;SDS011;73720;54.448;-0.944;2023-11-19T01:14:30;2.7;;;1;;
83738;SDS011;73720;54.448;-0.944;2023-11-19T01:17:30;2.9;;;1;;
83738;SDS011;73720;54.448;-0.944;2023-11-19T01:20:30;3.2;;;1.3;;
83738;SDS011;73720;54.448;-0.944;2023-11-19T01:23:30;3.7;;;1.2;;
83738;SDS011;73720;54.448;-0.944;2023-11-19T01:26:30;2.9;;;1;;
83738;SDS011;73720;54.448;-0.944;2023-11-19T01:29:30;2.7;;;0.9;;
83738;SDS011;73720;54.448;-0.944;2023-11-19T01:32:30;3;;;1.3;;
83738;SDS011;73720;54.448;-0.944;2023-11-19T01:35:30;2.5;;;1;;
83738;SDS011;73720;54.448;-0.944;2023-11-19T01:38:30;2.5;;;0.9;;
83738;SDS011;73720;54.448;-0.944;2023-11-19T01:44:30;2.8;;;0.9;;
83738;SDS011;73720;54.448;-0.944;2023-11-19T01:47:30;3.2;;;1.3;;
83738;SDS011;73720;54.448;-0.944;2023-11-19T01:50:30;2.7;;;1.1;;
83738;SDS011;73720;54.448;-0.944;2023-11-19T01:53:30;2.8;;;1;;
83738;SDS011;73720;54.448;-0.944;2023-11-19T01:56:30;3.8;;;1.5;;
83738;SDS011;73720;54.448;-0.944;2023-11-19T01:59:30;2.3;;;0.9;;
83738;SDS011;73720;54.448;-0.944;2023-11-19T02:02:30;2.9;;;1;;
83738;SDS011;73720;54.448;-0.944;2023-11-19T02:05:30;3.5;;;1.2;;
83738;SDS011;73720;54.448;-0.944;2023-11-19T02:08:30;3.1;;;1.1;;
83738;SDS011;73720;54.448;-0.944;2023-11-19T02:11:30;2.9;;;1.1;;
83738;SDS011;73720;54.448;-0.944;2023-11-19T02:14:30;3;;;1.3;;
83738;SDS011;73720;54.448;-0.944;2023-11-19T02:17:30;2.4;;;0.9;;
83738;SDS011;73720;54.448;-0.944;2023-11-19T02:20:30;3.3;;;1;;
83738;SDS011;73720;54.448;-0.944;2023-11-19T02:23:30;3.3;;;1;;
83738;SDS011;73720;54.448;-0.944;2023-11-19T02:26:35;2.7;;;1;;
83738;SDS011;73720;54.448;-0.944;2023-11-19T02:29:30;3.1;;;1.1;;
83738;SDS011;73720;54.448;-0.944;2023-11-19T02:32:30;2.9;;;1;;
83738;SDS011;73720;54.448;-0.944;2023-11-19T02:35:30;2.3;;;0.9;;
83738;SDS011;73720;54.448;-0.944;2023-11-19T02:38:30;2.4;;;1;;
83738;SDS011;73720;54.448;-0.944;2023-11-19T02:41:30;2.9;;;0.9;;
83738;SDS011;73720;54.448;-0.944;2023-11-19T02:44:30;2.8;;;1.1;;
83738;SDS011;73720;54.448;-0.944;2023-11-19T02:47:30;2.1;;;0.9;;
83738;SDS011;73720;54.448;-0.944;2023-11-19T02:50:30;4.4;;;1.4;;
83738;SDS011;73720;54.448;-0.944;2023-11-19T02:53:30;3.1;;;1.1;;
83738;SDS011;73720;54.448;-0.944;2023-11-19T02:56:30;3.1;;;1.3;;
83738;SDS011;73720;54.448;-0.944;2023-11-19T02:59:30;3.4;;;1.2;;
83738;SDS011;73720;54.448;-0.944;2023-11-19T03:02:30;3.1;;;1.3;;
83738;SDS011;73720;54.448;-0.944;2023-11-19T03:05:30;3.3;;;1;;
83738;SDS011;73720;54.448;-0.944;2023-11-19T03:08:30;2.4;;;0.8;;
83738;SDS011;73720;54.448;-0.944;2023-11-19T03:11:30;2.3;;;0.9;;
83738;SDS011;73720;54.448;-0.944;2023-11-19T03:14:30;3.7;;;1.2;;
83738;SDS011;73720;54.448;-0.944;2023-11-19T03:17:30;2.9;;;1;;
83738;SDS011;73720;54.448;-0.944;2023-11-19T03:20:30;3;;;1.1;;
83738;SDS011;73720;54.448;-0.944;2023-11-19T03:23:30;3.2;;;1.1;;
83738;SDS011;73720;54.448;-0.944;2023-11-19T03:26:30;2.3;;;1.1;;
83738;SDS011;73720;54.448;-0.944;2023-11-19T03:29:30;3.9;;;1.1;;
83738;SDS011;73720;54.448;-0.944;2023-11-19T03:32:31;3.4;;;1.2;;
83738;SDS011;73720;54.448;-0.944;2023-11-19T03:35:30;2.3;;;0.8;;
83738;SDS011;73720;54.448;-0.944;2023-11-19T03:38:30;2.3;;;0.8;;
83738;SDS011;73720;54.448;-0.944;2023-11-19T03:41:30;2.6;;;1;;
83738;SDS011;73720;54.448;-0.944;2023-11-19T03:44:30;3.4;;;1.2;;
83738;SDS011;73720;54.448;-0.944;2023-11-19T03:47:30;2.8;;;0.9;;
83738;SDS011;73720;54.448;-0.944;2023-11-19T03:50:30;2.9;;;0.8;;
83738;SDS011;73720;54.448;-0.944;2023-11-19T03:53:30;2.7;;;1.1;;
83738;SDS011;73720;54.448;-0.944;2023-11-19T03:56:30;3;;;1.2;;
83738;SDS011;73720;54.448;-0.944;2023-11-19T03:59:30;2.8;;;1;;
83738;SDS011;73720;54.448;-0.944;2023-11-19T04:02:30;3.3;;;1.2;;
83738;SDS011;73720;54.448;-0.944;2023-11-19T04:05:30;2.6;;;0.8;;
83738;SDS011;73720;54.448;-0.944;2023-11-19T04:08:30;3.8;;;1.5;;
83738;SDS011;73720;54.448;-0.944;2023-11-19T04:11:30;1.6;;;0.8;;
83738;SDS011;73720;54.448;-0.944;2023-11-19T04:14:30;3;;;1.2;;
83738;SDS011;73720;54.448;-0.944;2023-11-19T04:17:30;2.3;;;0.9;;
83738;SDS011;73720;54.448;-0.944;2023-11-19T04:20:30;2.2;;;0.8;;
83738;SDS011;73720;54.448;-0.944;2023-11-19T04:23:30;2.4;;;1;;
83738;SDS011;73720;54.448;-0.944;2023-11-19T04:26:30;2.9;;;1;;
83738;SDS011;73720;54.448;-0.944;2023-11-19T04:29:30;2.5;;;0.9;;
83738;SDS011;73720;54.448;-0.944;2023-11-19T04:32:30;2.8;;;0.9;;
83738;SDS011;73720;54.448;-0.944;2023-11-19T04:35:30;2.9;;;1;;
83738;SDS011;73720;54.448;-0.944;2023-11-19T04:38:30;3.5;;;1;;
83738;SDS011;73720;54.448;-0.944;2023-11-19T04:41:30;2.7;;;0.9;;
83738;SDS011;73720;54.448;-0.944;2023-11-19T04:44:30;2.6;;;0.9;;
83738;SDS011;73720;54.448;-0.944;2023-11-19T04:47:30;2.4;;;0.9;;
83738;SDS011;73720;54.448;-0.944;2023-11-19T04:50:30;2.4;;;0.8;;
83738;SDS011;73720;54.448;-0.944;2023-11-19T04:53:30;2.3;;;0.9;;
83738;SDS011;73720;54.448;-0.944;2023-11-19T04:56:30;2.4;;;0.8;;
83738;SDS011;73720;54.448;-0.944;2023-11-19T04:59:30;3;;;1.1;;
83738;SDS011;73720;54.448;-0.944;2023-11-19T05:02:30;2.7;;;0.9;;
83738;SDS011;73720;54.448;-0.944;2023-11-19T05:05:30;1.8;;;0.8;;
83738;SDS011;73720;54.448;-0.944;2023-11-19T05:08:30;2.4;;;0.8;;
83738;SDS011;73720;54.448;-0.944;2023-11-19T05:11:30;2.9;;;1.2;;
83738;SDS011;73720;54.448;-0.944;2023-11-19T05:14:30;2.5;;;1;;
83738;SDS011;73720;54.448;-0.944;2023-11-19T05:17:30;2.3;;;0.8;;
83738;SDS011;73720;54.448;-0.944;2023-11-19T05:20:30;2.4;;;0.8;;
83738;SDS011;73720;54.448;-0.944;2023-11-19T05:23:30;3;;;1.1;;
83738;SDS011;73720;54.448;-0.944;2023-11-19T05:26:30;2.6;;;0.8;;
83738;SDS011;73720;54.448;-0.944;2023-11-19T05:29:30;2.9;;;1;;
83738;SDS011;73720;54.448;-0.944;2023-11-19T05:32:30;2.1;;;0.7;;
83738;SDS011;73720;54.448;-0.944;2023-11-19T05:35:30;3.3;;;1.1;;
83738;SDS011;73720;54.448;-0.944;2023-11-19T05:38:30;2.8;;;0.8;;
83738;SDS011;73720;54.448;-0.944;2023-11-19T05:41:30;2.6;;;0.9;;
83738;SDS011;73720;54.448;-0.944;2023-11-19T05:44:30;2.4;;;1;;
83738;SDS011;73720;54.448;-0.944;2023-11-19T05:47:30;1.9;;;0.8;;
83738;SDS011;73720;54.448;-0.944;2023-11-19T05:50:30;2.5;;;0.9;;
83738;SDS011;73720;54.448;-0.944;2023-11-19T05:53:05;2.7;;;0.8;;
83738;SDS011;73720;54.448;-0.944;2023-11-19T05:56:05;2.3;;;0.9;;
83738;SDS011;73720;54.448;-0.944;2023-11-19T05:59:05;2.4;;;0.9;;
83738;SDS011;73720;54.448;-0.944;2023-11-19T06:02:05;2.9;;;0.9;;
83738;SDS011;73720;54.448;-0.944;2023-11-19T06:05:05;2.7;;;1;;
83738;SDS011;73720;54.448;-0.944;2023-11-19T06:08:05;2.4;;;0.8;;
83738;SDS011;73720;54.448;-0.944;2023-11-19T06:11:05;3.2;;;1.1;;
83738;SDS011;73720;54.448;-0.944;2023-11-19T06:14:05;2.8;;;0.9;;
83738;SDS011;73720;54.448;-0.944;2023-11-19T06:17:05;3.3;;;0.8;;
83738;SDS011;73720;54.448;-0.944;2023-11-19T06:20:05;2.6;;;0.9;;
83738;SDS011;73720;54.448;-0.944;2023-11-19T06:23:05;2.5;;;1;;
83738;SDS011;73720;54.448;-0.944;2023-11-19T06:26:05;2.7;;;0.9;;
83738;SDS011;73720;54.448;-0.944;2023-11-19T06:29:05;2.8;;;0.8;;
83738;SDS011;73720;54.448;-0.944;2023-11-19T06:32:05;2.4;;;0.9;;
83738;SDS011;73720;54.448;-0.944;2023-11-19T06:35:05;2.7;;;1.1;;
83738;SDS011;73720;54.448;-0.944;2023-11-19T06:38:05;2.2;;;0.9;;
83738;SDS011;73720;54.448;-0.944;2023-11-19T06:41:08;2.3;;;0.8;;
83738;SDS011;73720;54.448;-0.944;2023-11-19T06:44:05;3.1;;;1;;
83738;SDS011;73720;54.448;-0.944;2023-11-19T06:47:05;2.1;;;0.7;;
83738;SDS011;73720;54.448;-0.944;2023-11-19T06:50:05;2.2;;;0.9;;
83738;SDS011;73720;54.448;-0.944;2023-11-19T06:53:05;2.4;;;0.8;;
83738;SDS011;73720;54.448;-0.944;2023-11-19T06:56:05;2.4;;;0.7;;
83738;SDS011;73720;54.448;-0.944;2023-11-19T06:59:05;1.9;;;0.8;;
83738;SDS011;73720;54.448;-0.944;2023-11-19T07:02:05;2;;;0.6;;
83738;SDS011;73720;54.448;-0.944;2023-11-19T07:05:05;2.9;;;0.9;;
83738;SDS011;73720;54.448;-0.944;2023-11-19T07:08:08;2.4;;;0.9;;
83738;SDS011;73720;54.448;-0.944;2023-11-19T07:11:05;2.6;;;1;;
83738;SDS011;73720;54.448;-0.944;2023-11-19T07:14:05;3;;;1;;
83738;SDS011;73720;54.448;-0.944;2023-11-19T07:17:05;2.7;;;0.9;;
83738;SDS011;73720;54.448;-0.944;2023-11-19T07:20:05;2.2;;;1;;
83738;SDS011;73720;54.448;-0.944;2023-11-19T07:23:05;2.1;;;0.7;;
83738;SDS011;73720;54.448;-0.944;2023-11-19T07:26:05;2.2;;;0.7;;
83738;SDS011;73720;54.448;-0.944;2023-11-19T07:29:05;2.2;;;0.7;;
83738;SDS011;73720;54.448;-0.944;2023-11-19T07:32:05;1.7;;;0.7;;
83738;SDS011;73720;54.448;-0.944;2023-11-19T07:35:05;2.1;;;0.7;;
83738;SDS011;73720;54.448;-0.944;2023-11-19T07:38:05;2.1;;;0.7;;
83738;SDS011;73720;54.448;-0.944;2023-11-19T07:41:05;2.2;;;0.7;;
83738;SDS011;73720;54.448;-0.944;2023-11-19T07:44:05;1.9;;;0.6;;
83738;SDS011;73720;54.448;-0.944;2023-11-19T07:47:05;2.1;;;0.6;;
83738;SDS011;73720;54.448;-0.944;2023-11-19T07:50:05;2;;;0.7;;
83738;SDS011;73720;54.448;-0.944;2023-11-19T07:53:05;2.2;;;0.8;;
83738;SDS011;73720;54.448;-0.944;2023-11-19T07:56:05;4.2;;;0.9;;
83738;SDS011;73720;54.448;-0.944;2023-11-19T07:59:06;6;;;0.9;;
83738;SDS011;73720;54.448;-0.944;2023-11-19T08:02:05;3.6;;;0.9;;
83738;SDS011;73720;54.448;-0.944;2023-11-19T08:05:05;3.1;;;0.8;;
83738;SDS011;73720;54.448;-0.944;2023-11-19T08:08:05;2.2;;;0.7;;
83738;SDS011;73720;54.448;-0.944;2023-11-19T08:11:05;2.5;;;1.1;;
83738;SDS011;73720;54.448;-0.944;2023-11-19T08:14:05;3.2;;;0.7;;
83738;SDS011;73720;54.448;-0.944;2023-11-19T08:17:05;1.9;;;0.7;;
83738;SDS011;73720;54.448;-0.944;2023-11-19T08:20:05;2.9;;;0.8;;
83738;SDS011;73720;54.448;-0.944;2023-11-19T08:23:05;2.9;;;0.7;;
83738;SDS011;73720;54.448;-0.944;2023-11-19T08:26:05;3.6;;;1.1;;
83738;SDS011;73720;54.448;-0.944;2023-11-19T08:29:05;2.2;;;0.8;;
83738;SDS011;73720;54.448;-0.944;2023-11-19T08:32:05;2.4;;;1;;
83738;SDS011;73720;54.448;-0.944;2023-11-19T08:35:05;2.9;;;0.8;;
83738;SDS011;73720;54.448;-0.944;2023-11-19T08:38:05;1.9;;;0.6;;
83738;SDS011;73720;54.448;-0.944;2023-11-19T08:41:05;3.7;;;1.1;;
83738;SDS011;73720;54.448;-0.944;2023-11-19T08:44:05;1.6;;;0.6;;
83738;SDS011;73720;54.448;-0.944;2023-11-19T08:47:05;1.9;;;0.7;;
83738;SDS011;73720;54.448;-0.944;2023-11-19T08:50:05;2;;;0.7;;
83738;SDS011;73720;54.448;-0.944;2023-11-19T08:53:05;2.2;;;0.8;;
83738;SDS011;73720;54.448;-0.944;2023-11-19T08:56:05;2.4;;;0.6;;
83738;SDS011;73720;54.448;-0.944;2023-11-19T08:59:05;2.2;;;0.8;;
83738;SDS011;73720;54.448;-0.944;2023-11-19T09:02:05;2;;;0.7;;
83738;SDS011;73720;54.448;-0.944;2023-11-19T09:05:05;2.2;;;0.7;;
83738;SDS011;73720;54.448;-0.944;2023-11-19T09:08:05;2.2;;;0.9;;
83738;SDS011;73720;54.448;-0.944;2023-11-19T09:11:08;1.9;;;0.7;;
83738;SDS011;73720;54.448;-0.944;2023-11-19T09:14:05;1.4;;;0.6;;
83738;SDS011;73720;54.448;-0.944;2023-11-19T09:17:05;1.8;;;0.6;;
83738;SDS011;73720;54.448;-0.944;2023-11-19T09:20:05;1.3;;;0.5;;
83738;SDS011;73720;54.448;-0.944;2023-11-19T09:23:05;2.6;;;0.7;;
83738;SDS011;73720;54.448;-0.944;2023-11-19T09:26:05;1.8;;;0.7;;
83738;SDS011;73720;54.448;-0.944;2023-11-19T09:29:05;2.1;;;0.7;;
83738;SDS011;73720;54.448;-0.944;2023-11-19T09:32:05;2;;;0.9;;
83738;SDS011;73720;54.448;-0.944;2023-11-19T09:35:05;1.6;;;0.6;;
83738;SDS011;73720;54.448;-0.944;2023-11-19T09:38:05;1.7;;;0.6;;
83738;SDS011;73720;54.448;-0.944;2023-11-19T09:41:05;1.6;;;0.6;;
83738;SDS011;73720;54.448;-0.944;2023-11-19T09:44:05;1.8;;;0.7;;
83738;SDS011;73720;54.448;-0.944;2023-11-19T09:47:05;1.8;;;0.7;;
83738;SDS011;73720;54.448;-0.944;2023-11-19T09:50:05;1.7;;;0.6;;
83738;SDS011;73720;54.448;-0.944;2023-11-19T09:53:05;2.1;;;0.7;;
83738;SDS011;73720;54.448;-0.944;2023-11-19T09:56:05;1.5;;;0.5;;
83738;SDS011;73720;54.448;-0.944;2023-11-19T09:59:05;2.1;;;0.7;;
83738;SDS011;73720;54.448;-0.944;2023-11-19T10:02:05;1.9;;;0.5;;
83738;SDS011;73720;54.448;-0.944;2023-11-19T10:05:07;2.1;;;0.6;;
83738;SDS011;73720;54.448;-0.944;2023-11-19T10:08:05;1.5;;;0.6;;
83738;SDS011;73720;54.448;-0.944;2023-11-19T10:11:07;3.1;;;0.6;;
83738;SDS011;73720;54.448;-0.944;2023-11-19T10:14:05;1.6;;;0.7;;
83738;SDS011;73720;54.448;-0.944;2023-11-19T10:17:07;2;;;0.6;;
83738;SDS011;73720;54.448;-0.944;2023-11-19T10:20:05;1.8;;;0.8;;
83738;SDS011;73720;54.448;-0.944;2023-11-19T10:23:05;1.7;;;0.7;;
83738;SDS011;73720;54.448;-0.944;2023-11-19T10:26:05;1.5;;;0.6;;
83738;SDS011;73720;54.448;-0.944;2023-11-19T10:29:05;1.8;;;0.6;;
83738;SDS011;73720;54.448;-0.944;2023-11-19T10:32:05;1.5;;;0.6;;
83738;SDS011;73720;54.448;-0.944;2023-11-19T10:35:05;2;;;0.6;;
83738;SDS011;73720;54.448;-0.944;2023-11-19T10:41:05;1.9;;;0.6;;
83738;SDS011;73720;54.448;-0.944;2023-11-19T10:44:05;3.1;;;0.6;;
83738;SDS011;73720;54.448;-0.944;2023-11-19T10:47:05;2;;;0.6;;
83738;SDS011;73720;54.448;-0.944;2023-11-19T10:50:05;2.9;;;0.6;;
83738;SDS011;73720;54.448;-0.944;2023-11-19T10:53:05;2.2;;;0.6;;
83738;SDS011;73720;54.448;-0.944;2023-11-19T10:56:06;4.5;;;1;;
83738;SDS011;73720;54.448;-0.944;2023-11-19T10:59:05;1.7;;;0.6;;
83738;SDS011;73720;54.448;-0.944;2023-11-19T11:02:06;3.3;;;1;;
83738;SDS011;73720;54.448;-0.944;2023-11-19T11:05:05;2.4;;;0.7;;
83738;SDS011;73720;54.448;-0.944;2023-11-19T11:08:06;2.2;;;0.6;;
83738;SDS011;73720;54.448;-0.944;2023-11-19T11:11:05;3.8;;;0.8;;
83738;SDS011;73720;54.448;-0.944;2023-11-19T11:14:05;5.1;;;0.8;;
83738;SDS011;73720;54.448;-0.944;2023-11-19T11:17:05;2.8;;;0.7;;
83738;SDS011;73720;54.448;-0.944;2023-11-19T11:20:05;2.3;;;0.7;;
83738;SDS011;73720;54.448;-0.944;2023-11-19T11:35:12;1.8;;;0.7;;
83738;SDS011;73720;54.448;-0.944;2023-11-19T11:38:08;2.7;;;1;;
83738;SDS011;73720;54.448;-0.944;2023-11-19T11:44:05;3;;;0.9;;
83738;SDS011;73720;54.448;-0.944;2023-11-19T11:47:05;3.5;;;0.9;;
83738;SDS011;73720;54.448;-0.944;2023-11-19T11:50:06;2.4;;;0.8;;
83738;SDS011;73720;54.448;-0.944;2023-11-19T11:56:05;1.9;;;0.5;;
83738;SDS011;73720;54.448;-0.944;2023-11-19T12:02:05;2.7;;;0.7;;
83738;SDS011;73720;54.448;-0.944;2023-11-19T12:05:05;2.5;;;0.7;;
83738;SDS011;73720;54.448;-0.944;2023-11-19T12:08:05;1.9;;;0.6;;
83738;SDS011;73720;54.448;-0.944;2023-11-19T12:11:05;2.6;;;0.7;;
83738;SDS011;73720;54.448;-0.944;2023-11-19T12:14:05;1.9;;;0.8;;
83738;SDS011;73720;54.448;-0.944;2023-11-19T12:20:05;2.6;;;0.8;;
83738;SDS011;73720;54.448;-0.944;2023-11-19T12:23:05;3.5;;;0.9;;
83738;SDS011;73720;54.448;-0.944;2023-11-19T12:26:05;1.5;;;0.6;;
83738;SDS011;73720;54.448;-0.944;2023-11-19T12:29:05;2.1;;;0.7;;
83738;SDS011;73720;54.448;-0.944;2023-11-19T12:32:05;3;;;0.7;;
83738;SDS011;73720;54.448;-0.944;2023-11-19T12:35:05;1.5;;;0.6;;
83738;SDS011;73720;54.448;-0.944;2023-11-19T12:38:05;1.4;;;0.6;;
83738;SDS011;73720;54.448;-0.944;2023-11-19T12:41:05;2.1;;;0.7;;
83738;SDS011;73720;54.448;-0.944;2023-11-19T12:47:06;1.4;;;0.5;;
83738;SDS011;73720;54.448;-0.944;2023-11-19T12:50:05;1.6;;;0.6;;
83738;SDS011;73720;54.448;-0.944;2023-11-19T12:53:05;1.8;;;0.6;;
83738;SDS011;73720;54.448;-0.944;2023-11-19T12:56:08;2.4;;;0.7;;
83738;SDS011;73720;54.448;-0.944;2023-11-19T13:02:05;2.2;;;0.6;;
83738;SDS011;73720;54.448;-0.944;2023-11-19T13:05:24;1.9;;;0.5;;
83738;SDS011;73720;54.448;-0.944;2023-11-19T13:08:05;1.9;;;0.5;;
83738;SDS011;73720;54.448;-0.944;2023-11-19T13:11:05;3.3;;;0.7;;
83738;SDS011;73720;54.448;-0.944;2023-11-19T13:14:05;3;;;0.6;;
83738;SDS011;73720;54.448;-0.944;2023-11-19T13:17:05;2.3;;;0.8;;
83738;SDS011;73720;54.448;-0.944;2023-11-19T13:20:05;2.1;;;0.6;;
83738;SDS011;73720;54.448;-0.944;2023-11-19T13:23:05;2.1;;;0.6;;
83738;SDS011;73720;54.448;-0.944;2023-11-19T13:26:05;1.8;;;0.5;;
83738;SDS011;73720;54.448;-0.944;2023-11-19T13:29:05;1.5;;;0.6;;
83738;SDS011;73720;54.448;-0.944;2023-11-19T13:32:05;2.1;;;0.4;;
83738;SDS011;73720;54.448;-0.944;2023-11-19T13:35:05;1.9;;;0.7;;
83738;SDS011;73720;54.448;-0.944;2023-11-19T13:38:05;1.8;;;0.6;;
83738;SDS011;73720;54.448;-0.944;2023-11-19T13:41:05;1.4;;;0.6;;
83738;SDS011;73720;54.448;-0.944;2023-11-19T13:44:05;1.5;;;0.6;;
83738;SDS011;73720;54.448;-0.944;2023-11-19T13:47:05;1.9;;;0.6;;
83738;SDS011;73720;54.448;-0.944;2023-11-19T13:50:05;1.6;;;0.6;;
83738;SDS011;73720;54.448;-0.944;2023-11-19T13:53:05;2.9;;;0.6;;
83738;SDS011;73720;54.448;-0.944;2023-11-19T13:56:05;1.6;;;0.5;;
83738;SDS011;73720;54.448;-0.944;2023-11-19T13:59:05;1.5;;;0.5;;
83738;SDS011;73720;54.448;-0.944;2023-11-19T14:02:05;1.1;;;0.4;;
83738;SDS011;73720;54.448;-0.944;2023-11-19T14:05:05;1.4;;;0.5;;
83738;SDS011;73720;54.448;-0.944;2023-11-19T14:08:05;1.5;;;0.6;;
83738;SDS011;73720;54.448;-0.944;2023-11-19T14:11:05;1.8;;;0.6;;
83738;SDS011;73720;54.448;-0.944;2023-11-19T14:14:05;1.7;;;0.5;;
83738;SDS011;73720;54.448;-0.944;2023-11-19T14:17:05;1.7;;;0.5;;
83738;SDS011;73720;54.448;-0.944;2023-11-19T14:20:05;1.7;;;0.4;;
83738;SDS011;73720;54.448;-0.944;2023-11-19T14:23:05;1.7;;;0.5;;
83738;SDS011;73720;54.448;-0.944;2023-11-19T14:26:05;1.3;;;0.6;;
83738;SDS011;73720;54.448;-0.944;2023-11-19T14:29:05;1.5;;;0.5;;
83738;SDS011;73720;54.448;-0.944;2023-11-19T14:32:05;1.2;;;0.5;;
83738;SDS011;73720;54.448;-0.944;2023-11-19T14:35:05;1.2;;;0.4;;
83738;SDS011;73720;54.448;-0.944;2023-11-19T14:38:05;1.4;;;0.5;;
83738;SDS011;73720;54.448;-0.944;2023-11-19T14:41:05;1;;;0.4;;
83738;SDS011;73720;54.448;-0.944;2023-11-19T14:44:05;1.8;;;0.6;;
83738;SDS011;73720;54.448;-0.944;2023-11-19T14:47:05;1.3;;;0.6;;
83738;SDS011;73720;54.448;-0.944;2023-11-19T14:50:05;1.9;;;0.5;;
83738;SDS011;73720;54.448;-0.944;2023-11-19T14:53:05;1.7;;;0.5;;
83738;SDS011;73720;54.448;-0.944;2023-11-19T14:56:05;2.2;;;0.7;;
83738;SDS011;73720;54.448;-0.944;2023-11-19T14:59:05;2;;;0.9;;
83738;SDS011;73720;54.448;-0.944;2023-11-19T15:02:05;1.1;;;0.5;;
83738;SDS011;73720;54.448;-0.944;2023-11-19T15:05:05;2.3;;;1;;
83738;SDS011;73720;54.448;-0.944;2023-11-19T15:08:05;2.7;;;0.5;;
83738;SDS011;73720;54.448;-0.944;2023-11-19T15:11:05;1.5;;;0.6;;
83738;SDS011;73720;54.448;-0.944;2023-11-19T15:14:05;1.7;;;0.6;;
83738;SDS011;73720;54.448;-0.944;2023-11-19T15:17:05;3.9;;;0.6;;
83738;SDS011;73720;54.448;-0.944;2023-11-19T15:20:05;1.7;;;0.4;;
83738;SDS011;73720;54.448;-0.944;2023-11-19T15:23:05;1.4;;;0.6;;
83738;SDS011;73720;54.448;-0.944;2023-11-19T15:26:05;1.8;;;0.5;;
83738;SDS011;73720;54.448;-0.944;2023-11-19T15:29:05;1.5;;;0.5;;
83738;SDS011;73720;54.448;-0.944;2023-11-19T15:32:05;2.2;;;0.5;;
83738;SDS011;73720;54.448;-0.944;2023-11-19T15:35:05;1.8;;;0.5;;
83738;SDS011;73720;54.448;-0.944;2023-11-19T15:38:05;2.3;;;0.5;;
83738;SDS011;73720;54.448;-0.944;2023-11-19T15:41:05;1.2;;;0.4;;
83738;SDS011;73720;54.448;-0.944;2023-11-19T15:44:05;1.1;;;0.4;;
83738;SDS011;73720;54.448;-0.944;2023-11-19T15:47:05;2.2;;;0.5;;
83738;SDS011;73720;54.448;-0.944;2023-11-19T15:50:05;1.3;;;0.4;;
83738;SDS011;73720;54.448;-0.944;2023-11-19T15:53:05;1.5;;;0.4;;
83738;SDS011;73720;54.448;-0.944;2023-11-19T15:56:05;1.1;;;0.4;;
83738;SDS011;73720;54.448;-0.944;2023-11-19T15:59:05;1.2;;;0.4;;
83738;SDS011;73720;54.448;-0.944;2023-11-19T16:02:05;1.6;;;0.5;;
83738;SDS011;73720;54.448;-0.944;2023-11-19T16:05:05;1;;;0.4;;
83738;SDS011;73720;54.448;-0.944;2023-11-19T16:08:05;1.3;;;0.4;;
83738;SDS011;73720;54.448;-0.944;2023-11-19T16:11:05;1.1;;;0.3;;
83738;SDS011;73720;54.448;-0.944;2023-11-19T16:14:05;0.9;;;0.4;;
83738;SDS011;73720;54.448;-0.944;2023-11-19T16:17:05;1.1;;;0.4;;
83738;SDS011;73720;54.448;-0.944;2023-11-19T16:20:05;0.8;;;0.4;;
83738;SDS011;73720;54.448;-0.944;2023-11-19T16:23:05;1;;;0.4;;
83738;SDS011;73720;54.448;-0.944;2023-11-19T16:26:05;1;;;0.4;;
83738;SDS011;73720;54.448;-0.944;2023-11-19T16:29:05;1.1;;;0.4;;
83738;SDS011;73720;54.448;-0.944;2023-11-19T16:32:05;1.8;;;0.6;;
83738;SDS011;73720;54.448;-0.944;2023-11-19T16:35:05;1.1;;;0.4;;
83738;SDS011;73720;54.448;-0.944;2023-11-19T16:38:05;0.7;;;0.3;;
83738;SDS011;73720;54.448;-0.944;2023-11-19T16:41:05;1;;;0.4;;
83738;SDS011;73720;54.448;-0.944;2023-11-19T16:44:05;1;;;0.4;;
83738;SDS011;73720;54.448;-0.944;2023-11-19T16:47:05;2.1;;;0.5;;
83738;SDS011;73720;54.448;-0.944;2023-11-19T16:50:05;2.1;;;0.4;;
83738;SDS011;73720;54.448;-0.944;2023-11-19T16:53:05;1.1;;;0.4;;
83738;SDS011;73720;54.448;-0.944;2023-11-19T16:56:05;3.5;;;0.7;;
83738;SDS011;73720;54.448;-0.944;2023-11-19T16:59:05;2.2;;;0.5;;
83738;SDS011;73720;54.448;-0.944;2023-11-19T17:02:05;1.9;;;0.6;;
83738;SDS011;73720;54.448;-0.944;2023-11-19T17:05:05;0.9;;;0.3;;
83738;SDS011;73720;54.448;-0.944;2023-11-19T17:08:05;1.5;;;0.4;;
83738;SDS011;73720;54.448;-0.944;2023-11-19T17:11:05;1.1;;;0.4;;
83738;SDS011;73720;54.448;-0.944;2023-11-19T17:14:05;1;;;0.4;;
83738;SDS011;73720;54.448;-0.944;2023-11-19T17:17:05;1.8;;;0.4;;
83738;SDS011;73720;54.448;-0.944;2023-11-19T17:20:05;0.8;;;0.3;;
83738;SDS011;73720;54.448;-0.944;2023-11-19T17:23:05;1.4;;;0.4;;
83738;SDS011;73720;54.448;-0.944;2023-11-19T17:26:05;1.1;;;0.4;;
83738;SDS011;73720;54.448;-0.944;2023-11-19T17:29:05;0.6;;;0.3;;
83738;SDS011;73720;54.448;-0.944;2023-11-19T17:32:05;0.7;;;0.3;;
83738;SDS011;73720;54.448;-0.944;2023-11-19T17:35:05;1.7;;;0.5;;
83738;SDS011;73720;54.448;-0.944;2023-11-19T17:38:05;1.9;;;0.7;;
83738;SDS011;73720;54.448;-0.944;2023-11-19T17:41:05;0.8;;;0.4;;
83738;SDS011;73720;54.448;-0.944;2023-11-19T17:44:05;1.8;;;0.3;;
83738;SDS011;73720;54.448;-0.944;2023-11-19T17:47:05;1.3;;;0.3;;
83738;SDS011;73720;54.448;-0.944;2023-11-19T17:50:05;1.3;;;0.3;;
83738;SDS011;73720;54.448;-0.944;2023-11-19T17:53:05;0.8;;;0.3;;
83738;SDS011;73720;54.448;-0.944;2023-11-19T17:56:07;0.7;;;0.4;;
83738;SDS011;73720;54.448;-0.944;2023-11-19T17:59:05;0.9;;;0.4;;
83738;SDS011;73720;54.448;-0.944;2023-11-19T18:02:05;1.2;;;0.8;;
83738;SDS011;73720;54.448;-0.944;2023-11-19T18:05:05;0.7;;;0.3;;
83738;SDS011;73720;54.448;-0.944;2023-11-19T18:08:05;0.8;;;0.3;;
83738;SDS011;73720;54.448;-0.944;2023-11-19T18:11:05;0.8;;;0.4;;
83738;SDS011;73720;54.448;-0.944;2023-11-19T18:14:05;1.9;;;0.4;;
83738;SDS011;73720;54.448;-0.944;2023-11-19T18:17:05;1.6;;;0.3;;
83738;SDS011;73720;54.448;-0.944;2023-11-19T18:20:05;1.4;;;0.4;;
83738;SDS011;73720;54.448;-0.944;2023-11-19T18:23:05;0.8;;;0.3;;
83738;SDS011;73720;54.448;-0.944;2023-11-19T18:26:05;1.1;;;0.4;;
83738;SDS011;73720;54.448;-0.944;2023-11-19T18:29:05;2.1;;;0.4;;
83738;SDS011;73720;54.448;-0.944;2023-11-19T18:32:05;1.9;;;0.5;;
83738;SDS011;73720;54.448;-0.944;2023-11-19T18:35:05;1.1;;;0.4;;
83738;SDS011;73720;54.448;-0.944;2023-11-19T18:38:05;1.4;;;0.6;;
83738;SDS011;73720;54.448;-0.944;2023-11-19T18:41:05;1.4;;;0.5;;
83738;SDS011;73720;54.448;-0.944;2023-11-19T18:44:05;1.1;;;0.5;;
83738;SDS011;73720;54.448;-0.944;2023-11-19T18:47:05;2.2;;;0.6;;
83738;SDS011;73720;54.448;-0.944;2023-11-19T18:50:05;2.2;;;0.5;;
83738;SDS011;73720;54.448;-0.944;2023-11-19T18:53:05;2.2;;;0.6;;
83738;SDS011;73720;54.448;-0.944;2023-11-19T18:56:05;2;;;0.5;;
83738;SDS011;73720;54.448;-0.944;2023-11-19T18:59:05;2.6;;;0.6;;
83738;SDS011;73720;54.448;-0.944;2023-11-19T19:02:05;6.8;;;0.6;;
83738;SDS011;73720;54.448;-0.944;2023-11-19T19:05:05;2.6;;;0.6;;